Aviation Digital Data Service (ADDS)

Output produced by METARs form (2141 UTC 18 September 2014)
found at http://www.aviationweather.gov/adds/metars/
 
KGED 182054Z AUTO 07009KT 10SM OVC055 21/12 A3002 RMK AO2 SLP166 T02110122 53006